createdAt,value
2023-03-11T00:01:44.386Z,2.00
2023-03-11T00:04:13.210Z,1.90
2023-03-11T00:09:16.657Z,2.03
2023-03-11T00:11:44.014Z,2.08
2023-03-11T00:52:21.433Z,2.10
2023-03-11T01:07:58.898Z,2.85
2023-03-11T01:15:57.252Z,4.75
2023-03-11T01:21:12.841Z,2.58
2023-03-11T01:23:41.904Z,5.40
2023-03-11T01:26:09.351Z,2.78
2023-03-11T01:28:36.789Z,3.75
2023-03-11T01:31:04.330Z,4.97
2023-03-11T01:33:31.886Z,3.75
2023-03-11T01:35:59.345Z,5.30
2023-03-11T01:38:26.865Z,3.20
2023-03-11T01:40:55.648Z,3.72
2023-03-11T01:43:47.901Z,4.45
2023-03-11T01:51:30.670Z,3.97
2023-03-11T01:54:00.005Z,4.78
2023-03-11T01:56:28.960Z,3.03
2023-03-11T01:58:56.478Z,2.97
2023-03-11T02:01:24.892Z,2.50
2023-03-11T02:03:52.744Z,4.70
2023-03-11T02:06:21.380Z,3.70
2023-03-11T02:08:49.162Z,4.00
2023-03-11T02:11:17.659Z,4.00
2023-03-11T02:13:47.065Z,4.22
2023-03-11T02:16:15.059Z,3.20
2023-03-11T02:18:43.498Z,4.30
2023-03-11T02:21:20.130Z,2.85
2023-03-11T02:23:51.501Z,4.32
2023-03-11T02:26:22.155Z,4.30
2023-03-11T02:28:51.672Z,3.63
2023-03-11T02:31:19.118Z,3.90
2023-03-11T02:33:47.860Z,5.15
2023-03-11T02:36:31.225Z,4.32
2023-03-11T02:38:58.606Z,3.40
2023-03-11T02:41:26.162Z,3.78
2023-03-11T02:44:01.468Z,2.63
2023-03-11T02:46:40.406Z,3.97
2023-03-11T02:49:07.902Z,3.03
2023-03-11T02:54:13.616Z,3.50
2023-03-11T02:56:41.000Z,2.35
2023-03-11T03:01:44.772Z,2.03
2023-03-11T03:04:12.245Z,2.42
2023-03-11T03:06:39.568Z,1.38
2023-03-11T03:09:06.933Z,1.63
2023-03-11T03:11:34.284Z,2.00
2023-03-11T03:14:01.650Z,2.97
2023-03-11T03:16:29.072Z,2.17
2023-03-11T03:21:46.521Z,1.40
2023-03-11T03:24:13.972Z,1.20
2023-03-11T03:26:41.407Z,2.22
2023-03-11T03:29:08.746Z,2.20
2023-03-11T03:31:36.153Z,2.42
2023-03-11T03:36:51.683Z,2.33
2023-03-11T03:39:20.013Z,0.82
2023-03-11T03:41:47.526Z,2.22
2023-03-11T03:49:38.152Z,1.20
2023-03-11T03:52:17.314Z,1.95
2023-03-11T03:54:44.658Z,1.40
2023-03-11T03:57:12.013Z,2.05
2023-03-11T04:02:35.442Z,1.70
2023-03-11T04:05:02.942Z,2.58
2023-03-11T04:07:36.613Z,1.70
2023-03-11T04:10:04.443Z,1.98
2023-03-11T04:12:31.798Z,1.58
2023-03-11T04:14:59.322Z,1.60
2023-03-11T04:17:26.719Z,1.45
2023-03-11T04:19:54.270Z,1.65
2023-03-11T04:22:21.701Z,1.73
2023-03-11T04:25:10.091Z,1.20
2023-03-11T04:28:02.839Z,1.73
2023-03-11T04:30:31.653Z,1.95
2023-03-11T04:32:59.065Z,3.08
2023-03-11T04:35:26.528Z,2.03
2023-03-11T04:37:53.872Z,2.00
2023-03-11T04:40:21.218Z,1.85
2023-03-11T04:42:48.648Z,1.13
2023-03-11T04:45:18.384Z,1.60
2023-03-11T04:47:49.599Z,1.77
2023-03-11T04:50:17.127Z,1.33
2023-03-11T04:52:44.680Z,0.98
2023-03-11T04:55:13.774Z,2.58
2023-03-11T04:57:41.292Z,1.98
2023-03-11T05:00:11.241Z,2.40
2023-03-11T05:02:39.198Z,2.05
2023-03-11T05:05:08.684Z,1.65
2023-03-11T05:07:36.092Z,2.17
2023-03-11T05:10:03.540Z,2.10
2023-03-11T05:12:30.901Z,2.30
2023-03-11T05:14:58.266Z,2.17
2023-03-11T05:17:25.752Z,1.98
2023-03-11T05:22:35.674Z,1.38
2023-03-11T05:25:03.103Z,1.23
2023-03-11T05:27:30.446Z,1.83
2023-03-11T05:32:39.379Z,2.15
2023-03-11T05:35:07.101Z,1.75
2023-03-11T05:37:49.928Z,1.20
2023-03-11T05:40:19.141Z,1.55
2023-03-11T05:42:46.535Z,2.13
2023-03-11T05:45:14.414Z,2.22
2023-03-11T05:47:42.338Z,1.63
2023-03-11T05:50:10.811Z,1.92
2023-03-11T05:52:38.145Z,1.70
2023-03-11T05:55:05.939Z,1.88
2023-03-11T05:57:34.613Z,2.15
2023-03-11T06:00:01.988Z,1.65
2023-03-11T06:02:29.754Z,2.13
2023-03-11T06:04:57.334Z,1.70
2023-03-11T06:15:30.388Z,2.38
2023-03-11T06:17:57.823Z,2.10
2023-03-11T06:20:25.344Z,2.13
2023-03-11T06:22:52.718Z,2.05
2023-03-11T06:25:25.837Z,1.92
2023-03-11T06:33:29.838Z,1.27
2023-03-11T06:35:58.043Z,2.08
2023-03-11T06:38:25.424Z,1.70
2023-03-11T06:40:53.045Z,1.70
2023-03-11T06:43:20.465Z,1.65
2023-03-11T06:48:22.924Z,1.73
2023-03-11T06:53:32.969Z,2.35
2023-03-11T06:56:11.914Z,1.40
2023-03-11T07:01:28.177Z,0.85
2023-03-11T07:15:28.291Z,1.08
2023-03-11T07:20:37.623Z,1.27
2023-03-11T07:23:05.033Z,1.17
2023-03-11T07:25:32.643Z,0.98
2023-03-11T07:30:44.452Z,1.33
2023-03-11T07:35:53.782Z,1.67
2023-03-11T07:38:21.269Z,0.60
2023-03-11T07:40:48.691Z,1.17
2023-03-11T07:43:16.158Z,0.77
2023-03-11T07:45:44.861Z,1.60
2023-03-11T07:48:12.219Z,1.80
2023-03-11T07:50:39.748Z,1.20
2023-03-11T07:53:07.268Z,1.40
2023-03-11T07:55:34.732Z,1.17
2023-03-11T07:58:02.408Z,1.50
2023-03-11T08:00:30.024Z,1.70
2023-03-11T08:02:58.713Z,1.52
2023-03-11T08:05:26.096Z,1.58
2023-03-11T08:07:53.507Z,1.77
2023-03-11T08:10:20.897Z,1.52
2023-03-11T08:12:48.998Z,1.75
2023-03-11T08:15:18.202Z,1.80
2023-03-11T08:17:46.254Z,1.83
2023-03-11T08:20:16.616Z,2.03
2023-03-11T08:22:57.265Z,2.10
2023-03-11T08:25:26.243Z,2.10
2023-03-11T08:27:54.146Z,1.35
2023-03-11T08:30:22.412Z,2.17
2023-03-11T08:32:50.665Z,1.60
2023-03-11T08:35:20.574Z,1.85
2023-03-11T08:37:48.745Z,2.40
2023-03-11T08:40:16.428Z,2.00
2023-03-11T08:42:43.811Z,1.95
2023-03-11T08:45:11.612Z,2.60
2023-03-11T08:47:39.879Z,1.58
2023-03-11T08:50:08.282Z,1.50
2023-03-11T08:52:37.012Z,2.13
2023-03-11T08:55:05.147Z,1.48
2023-03-11T08:57:32.549Z,1.80
2023-03-11T08:59:59.901Z,2.22
2023-03-11T09:02:27.577Z,1.38
2023-03-11T09:04:55.131Z,1.85
2023-03-11T09:07:23.659Z,1.45
2023-03-11T09:09:54.571Z,2.38
2023-03-11T09:12:22.149Z,2.05
2023-03-11T09:14:49.804Z,1.92
2023-03-11T09:17:17.524Z,2.25
2023-03-11T09:19:44.975Z,2.38
2023-03-11T09:22:12.826Z,2.00
2023-03-11T09:24:40.189Z,2.28
2023-03-11T09:27:09.754Z,1.55
2023-03-11T09:29:37.128Z,2.90
2023-03-11T09:32:04.866Z,2.75
2023-03-11T09:34:33.327Z,2.47
2023-03-11T09:37:02.093Z,2.40
2023-03-11T09:39:29.494Z,1.85
2023-03-11T09:41:59.166Z,4.15
2023-03-11T09:47:21.304Z,1.98
2023-03-11T09:50:01.106Z,2.55
2023-03-11T09:54:56.993Z,2.70
2023-03-11T09:57:26.228Z,2.22
2023-03-11T09:59:53.606Z,3.15
2023-03-11T10:02:22.711Z,2.50
2023-03-11T10:04:52.497Z,3.15
2023-03-11T10:07:23.241Z,2.25
2023-03-11T10:09:52.966Z,3.60
2023-03-11T10:12:24.987Z,2.63
2023-03-11T10:15:09.356Z,2.88
2023-03-11T10:18:01.330Z,3.33
2023-03-11T10:20:30.692Z,2.47
2023-03-11T10:23:03.709Z,1.80
2023-03-11T10:25:33.035Z,3.58
2023-03-11T10:28:03.561Z,3.58
2023-03-11T10:30:33.635Z,3.40
2023-03-11T10:33:03.332Z,2.35
2023-03-11T10:35:35.079Z,2.45
2023-03-11T10:38:08.644Z,2.33
2023-03-11T10:40:37.013Z,2.40
2023-03-11T10:43:05.294Z,3.25
2023-03-11T10:45:34.905Z,2.55
2023-03-11T10:48:02.273Z,3.22
2023-03-11T10:50:36.517Z,2.38
2023-03-11T10:53:09.584Z,3.28
2023-03-11T10:55:45.392Z,2.90
2023-03-11T10:58:13.674Z,2.60
2023-03-11T11:00:41.135Z,2.55
2023-03-11T11:03:13.679Z,2.83
2023-03-11T11:05:41.070Z,2.60
2023-03-11T11:08:13.624Z,2.40
2023-03-11T11:10:50.024Z,2.13
2023-03-11T11:13:19.169Z,2.10
2023-03-11T11:15:54.280Z,2.00
2023-03-11T11:18:23.312Z,2.28
2023-03-11T11:21:02.079Z,1.80
2023-03-11T11:23:34.424Z,2.00
2023-03-11T11:26:04.619Z,1.75
2023-03-11T11:28:32.636Z,1.83
2023-03-11T11:31:00.798Z,1.90
2023-03-11T11:33:29.482Z,1.63
2023-03-11T11:35:57.876Z,1.00
2023-03-11T11:38:25.848Z,2.15
2023-03-11T11:40:55.949Z,1.90
2023-03-11T11:43:26.132Z,1.85
2023-03-11T11:45:55.976Z,2.20
2023-03-11T11:48:25.961Z,1.70
2023-03-11T11:50:55.712Z,1.60
2023-03-11T11:55:52.496Z,2.10
2023-03-11T11:58:21.619Z,1.38
2023-03-11T12:00:53.926Z,1.50
2023-03-11T12:03:33.213Z,1.58
2023-03-11T12:06:02.834Z,1.45
2023-03-11T12:08:35.052Z,1.60
2023-03-11T12:11:03.891Z,1.45
2023-03-11T12:13:42.511Z,1.33
2023-03-11T12:16:14.072Z,1.55
2023-03-11T12:18:44.045Z,1.67
2023-03-11T12:21:15.288Z,1.08
2023-03-11T12:23:47.186Z,1.85
2023-03-11T12:26:16.760Z,1.55
2023-03-11T12:28:47.894Z,2.08
2023-03-11T12:31:15.318Z,1.30
2023-03-11T12:33:44.881Z,2.30
2023-03-11T12:36:30.271Z,1.00
2023-03-11T12:38:59.118Z,0.85
2023-03-11T12:41:36.847Z,1.10
2023-03-11T12:44:06.653Z,1.08
2023-03-11T12:49:07.734Z,1.08
2023-03-11T12:51:41.506Z,0.85
2023-03-11T12:54:22.041Z,0.80
2023-03-11T12:56:53.891Z,0.60
2023-03-11T12:59:33.533Z,0.70
2023-03-11T13:02:06.379Z,1.00
2023-03-11T13:04:42.415Z,1.27
2023-03-11T13:07:28.549Z,0.75
2023-03-11T13:10:04.422Z,0.93
2023-03-11T13:12:43.258Z,0.90
2023-03-11T13:15:29.353Z,0.85
2023-03-11T13:17:59.213Z,1.85
2023-03-11T13:23:14.777Z,0.73
2023-03-11T13:25:42.812Z,0.70
2023-03-11T13:28:19.969Z,0.98
2023-03-11T13:30:51.548Z,1.98
2023-03-11T13:33:25.057Z,0.90
2023-03-11T13:36:07.328Z,1.00
2023-03-11T13:38:45.966Z,1.08
2023-03-11T13:41:15.426Z,0.98
2023-03-11T13:43:45.521Z,0.60
2023-03-11T13:46:15.294Z,0.82
2023-03-11T13:51:16.558Z,1.20
2023-03-11T13:53:47.042Z,0.90
2023-03-11T13:56:17.900Z,0.60
2023-03-11T13:58:45.381Z,0.77
2023-03-11T14:01:16.564Z,0.70
2023-03-11T14:03:44.644Z,0.80
2023-03-11T14:06:17.506Z,0.90
2023-03-11T14:08:54.016Z,0.90
2023-03-11T14:11:26.483Z,0.70
2023-03-11T14:13:54.233Z,0.60
2023-03-11T14:16:22.706Z,0.45
2023-03-11T14:19:01.935Z,1.17
2023-03-11T14:21:31.681Z,1.15
2023-03-11T14:24:00.172Z,0.80
2023-03-11T14:26:30.028Z,0.88
2023-03-11T14:31:26.543Z,0.60
2023-03-11T14:33:58.510Z,0.98
2023-03-11T14:36:25.828Z,0.70
2023-03-11T14:38:54.564Z,0.70
2023-03-11T14:41:22.085Z,0.75
2023-03-11T14:43:51.714Z,0.40
2023-03-11T14:46:20.738Z,0.65
2023-03-11T14:48:49.289Z,0.50
2023-03-11T14:51:18.696Z,0.82
2023-03-11T14:53:47.231Z,0.68
2023-03-11T14:56:18.384Z,0.60
2023-03-11T14:58:51.114Z,0.68
2023-03-11T15:01:25.998Z,1.08
2023-03-11T15:03:54.463Z,0.82
2023-03-11T15:06:23.817Z,0.95
2023-03-11T15:08:53.196Z,1.35
2023-03-11T15:11:24.377Z,0.98
2023-03-11T15:13:52.659Z,4.03
2023-03-11T15:16:30.634Z,1.63
2023-03-11T15:19:00.419Z,1.52
2023-03-11T15:21:27.916Z,1.70
2023-03-11T15:24:00.098Z,1.00
2023-03-11T15:26:30.246Z,2.13
2023-03-11T15:28:59.091Z,0.88
2023-03-11T15:31:34.285Z,0.98
2023-03-11T15:34:20.067Z,0.70
2023-03-11T15:36:56.139Z,0.70
2023-03-11T15:39:27.578Z,0.70
2023-03-11T15:42:01.032Z,0.95
2023-03-11T15:44:30.187Z,0.70
2023-03-11T15:46:59.553Z,0.77
2023-03-11T15:49:27.044Z,0.80
2023-03-11T15:51:54.385Z,0.80
2023-03-11T15:54:21.818Z,0.90
2023-03-11T15:56:49.196Z,0.77
2023-03-11T15:59:19.019Z,0.50
2023-03-11T16:04:15.779Z,0.80
2023-03-11T16:06:43.884Z,4.97
2023-03-11T16:09:11.736Z,1.70
2023-03-11T16:11:39.540Z,0.90
2023-03-11T16:14:07.546Z,1.45
2023-03-11T16:16:36.268Z,2.00
2023-03-11T16:19:03.566Z,2.40
2023-03-11T16:21:34.185Z,2.47
2023-03-11T16:24:01.696Z,2.75
2023-03-11T16:26:29.954Z,2.53
2023-03-11T16:29:01.565Z,5.10
2023-03-11T16:31:34.247Z,3.53
2023-03-11T16:34:02.980Z,2.67
2023-03-11T16:36:30.312Z,1.67
2023-03-11T16:38:57.675Z,1.63
2023-03-11T16:41:25.018Z,1.67
2023-03-11T16:43:52.491Z,1.98
2023-03-11T16:46:19.873Z,2.47
2023-03-11T16:48:48.442Z,2.03
2023-03-11T16:51:17.131Z,2.20
2023-03-11T16:53:44.711Z,2.40
2023-03-11T16:56:14.331Z,2.33
2023-03-11T16:58:41.715Z,1.73
2023-03-11T17:01:09.066Z,1.30
2023-03-11T17:03:42.485Z,1.80
2023-03-11T17:06:10.389Z,2.35
2023-03-11T17:08:39.115Z,2.70
2023-03-11T17:11:06.583Z,2.63
2023-03-11T17:13:33.941Z,3.13
2023-03-11T17:16:02.099Z,2.92
2023-03-11T17:18:29.594Z,4.15
2023-03-11T17:20:56.984Z,4.07
2023-03-11T17:23:26.730Z,5.85
2023-03-11T17:25:55.389Z,4.28
2023-03-11T17:28:24.631Z,4.72
2023-03-11T17:30:52.013Z,4.30
2023-03-11T17:33:19.383Z,5.03
2023-03-11T17:35:47.168Z,5.20
2023-03-11T17:38:16.465Z,4.85
2023-03-11T17:40:44.136Z,5.18
2023-03-11T17:43:12.820Z,4.78
2023-03-11T17:45:40.683Z,4.28
2023-03-11T17:48:08.017Z,4.35
2023-03-11T17:50:38.624Z,4.55
2023-03-11T17:53:06.274Z,4.80
2023-03-11T17:55:35.142Z,4.75
2023-03-11T17:58:02.481Z,4.55
2023-03-11T18:00:31.215Z,3.95
2023-03-11T18:02:58.520Z,4.40
2023-03-11T18:05:25.897Z,4.47
2023-03-11T18:07:53.276Z,4.82
2023-03-11T18:10:21.439Z,5.03
2023-03-11T18:12:48.930Z,4.93
2023-03-11T18:15:19.089Z,4.32
2023-03-11T18:17:48.025Z,3.60
2023-03-11T18:20:15.904Z,3.50
2023-03-11T18:22:46.657Z,3.25
2023-03-11T18:25:14.622Z,2.75
2023-03-11T18:27:42.030Z,3.30
2023-03-11T18:30:14.375Z,3.42
2023-03-11T18:32:42.006Z,3.97
2023-03-11T18:35:14.317Z,2.75
2023-03-11T18:37:41.908Z,2.70
2023-03-11T18:40:12.712Z,2.63
2023-03-11T18:42:42.842Z,3.28
2023-03-11T18:45:12.131Z,2.13
2023-03-11T18:47:39.569Z,2.10
2023-03-11T18:50:16.489Z,2.08
2023-03-11T18:52:43.802Z,1.40
2023-03-11T18:55:11.259Z,2.47
2023-03-11T18:57:40.332Z,0.85
2023-03-11T19:00:13.917Z,2.13
2023-03-11T19:02:41.304Z,1.30
2023-03-11T19:05:09.845Z,2.00
2023-03-11T19:07:38.505Z,2.85
2023-03-11T19:10:06.280Z,1.95
2023-03-11T19:12:35.674Z,1.92
2023-03-11T19:15:03.158Z,1.42
2023-03-11T19:17:30.532Z,1.58
2023-03-11T19:19:57.907Z,0.95
2023-03-11T19:22:25.268Z,1.00
2023-03-11T19:24:55.124Z,0.88
2023-03-11T19:29:49.650Z,0.70
2023-03-11T19:32:17.271Z,0.70
2023-03-11T19:34:45.633Z,0.63
2023-03-11T19:37:13.007Z,0.60
2023-03-11T19:39:40.409Z,0.90
2023-03-11T19:42:09.092Z,0.90
2023-03-11T19:44:36.487Z,1.10
2023-03-11T19:47:03.809Z,0.90
2023-03-11T19:49:31.198Z,0.60
2023-03-11T19:51:58.591Z,0.60
2023-03-11T19:54:27.016Z,0.60
2023-03-11T19:56:54.357Z,0.65
2023-03-11T19:59:23.022Z,0.90
2023-03-11T20:01:50.460Z,0.90
2023-03-11T20:04:18.045Z,1.13
2023-03-11T20:06:50.053Z,0.98
2023-03-11T20:09:17.737Z,2.10
2023-03-11T20:11:47.480Z,1.13
2023-03-11T20:14:14.918Z,1.13
2023-03-11T20:16:43.609Z,0.73
2023-03-11T20:19:11.136Z,0.70
2023-03-11T20:21:40.736Z,0.88
2023-03-11T20:24:11.565Z,0.93
2023-03-11T20:26:39.345Z,1.35
2023-03-11T20:29:06.822Z,1.40
2023-03-11T20:31:34.596Z,1.00
2023-03-11T20:34:03.811Z,1.20
2023-03-11T20:36:33.030Z,0.90
2023-03-11T20:39:00.854Z,0.80
2023-03-11T20:41:28.884Z,0.70
2023-03-11T20:43:57.279Z,0.93
2023-03-11T20:46:24.743Z,1.13
2023-03-11T20:48:52.174Z,0.80
2023-03-11T20:51:21.197Z,0.70
2023-03-11T20:53:48.911Z,0.82
2023-03-11T20:56:25.597Z,0.50
2023-03-11T20:58:54.828Z,0.70
2023-03-11T21:01:26.042Z,0.77
2023-03-11T21:03:56.572Z,0.68
2023-03-11T21:06:26.937Z,0.63
2023-03-11T21:08:56.261Z,0.75
2023-03-11T21:11:24.388Z,0.85
2023-03-11T21:13:53.111Z,0.95
2023-03-11T21:16:22.705Z,0.60
2023-03-11T21:18:50.225Z,0.95
2023-03-11T21:21:20.733Z,0.60
2023-03-11T21:23:50.020Z,1.00
2023-03-11T21:26:18.074Z,1.52
2023-03-11T21:28:46.669Z,1.40
2023-03-11T21:31:16.171Z,1.03
2023-03-11T21:33:44.072Z,1.70
2023-03-11T21:36:12.173Z,1.02
2023-03-11T21:38:42.738Z,0.80
2023-03-11T21:41:14.723Z,1.17
2023-03-11T21:43:42.639Z,1.10
2023-03-11T21:46:10.856Z,1.30
2023-03-11T21:48:40.984Z,1.38
2023-03-11T21:51:08.813Z,1.05
2023-03-11T21:53:36.378Z,0.90
2023-03-11T21:56:06.551Z,1.00
2023-03-11T21:58:35.795Z,0.90
2023-03-11T22:01:03.489Z,1.15
2023-03-11T22:03:35.682Z,1.10
2023-03-11T22:06:04.031Z,1.13
2023-03-11T22:08:31.743Z,0.85
2023-03-11T22:10:59.214Z,1.00
2023-03-11T22:13:26.800Z,0.63
2023-03-11T22:15:55.787Z,1.00
2023-03-11T22:36:24.700Z,0.90
2023-03-11T22:38:52.078Z,0.70
2023-03-11T22:41:20.358Z,1.10
2023-03-11T22:43:48.108Z,1.10
2023-03-11T22:46:16.666Z,0.93
2023-03-11T22:48:44.102Z,0.60
2023-03-11T22:51:11.523Z,0.75
2023-03-11T22:53:40.240Z,0.98
2023-03-11T22:56:08.773Z,0.70
2023-03-11T22:58:36.422Z,0.80
2023-03-11T23:01:04.194Z,0.50
2023-03-11T23:03:32.450Z,0.52
2023-03-11T23:06:00.013Z,0.73
2023-03-11T23:08:30.720Z,0.50
2023-03-11T23:11:04.739Z,0.80
2023-03-11T23:13:32.637Z,0.30
2023-03-11T23:16:07.556Z,0.70
2023-03-11T23:18:35.138Z,0.40
2023-03-11T23:21:02.743Z,0.75
2023-03-11T23:23:30.740Z,0.95
2023-03-11T23:25:59.469Z,0.60
2023-03-11T23:28:26.893Z,0.60
2023-03-11T23:30:54.351Z,0.70
2023-03-11T23:33:21.733Z,1.20
2023-03-11T23:35:49.164Z,0.63
2023-03-11T23:38:16.688Z,0.90
2023-03-11T23:40:44.124Z,0.88
2023-03-11T23:43:12.932Z,0.60
2023-03-11T23:45:40.451Z,0.57
